Flight Track Log - Related Links

Times and Time Zones

All times are in EDT time to prevent confusion due to time zone crossing. See the NKS331 flight status page for this flight to view local times or setup timezone preferences in your user account.

Time Position Orientation Groundspeed Altitude Reporting Facility
EDT Latitude Longitude Course Direction KTS MPH feet Rate Location/Type
Sat 12:15:37 AM 40.7600 -73.8350 124° Southeast 178 205 1,100  Level FlightAware ADS-B
Sat 12:15:57 AM 40.7530 -73.8180 119° Southeast 170 196 1,800 1,867 Climbing FlightAware ADS-B
Sat 12:16:22 AM 40.7620 -73.7940 64° Northeast 182 209 2,500 1,440 Climbing FlightAware ADS-B
Sat 12:16:47 AM 40.7820 -73.7760 34° Northeast 213 245 3,000 1,855 Climbing FlightAware ADS-B
Sat 12:17:17 AM 40.8070 -73.7570 30° Northeast 228 262 4,200 2,571 Climbing FlightAware ADS-B
Sat 12:17:22 AM 40.8130 -73.7560 North 229 264 4,500 2,640 Climbing FlightAware ADS-B
Sat 12:17:42 AM 40.8320 -73.7650 340° North 238 274 5,300 2,229 Climbing FlightAware ADS-B
Sat 12:17:57 AM 40.8430 -73.7830 309° West 258 297 5,800 2,533 Climbing FlightAware ADS-B
Sat 12:18:27 AM 40.8620 -73.8300 298° West 268 308 7,200 1,964 Climbing FlightAware ADS-B
Sat 12:18:52 AM 40.8760 -73.8640 299° West 267 307 7,600 1,038 Climbing FlightAware ADS-B
Sat 12:19:19 AM 40.8934 -73.9066 298° West 269 310 8,100 1,167 Climbing FlightAware ADS-B
Sat 12:19:28 AM 40.8985 -73.9191 298° West 268 308 8,300 1,500 Climbing FlightAware ADS-B
Sat 12:19:35 AM 40.9024 -73.9292 297° West 269 310 8,500 2,000 Climbing FlightAware ADS-B
Sat 12:19:43 AM 40.9075 -73.9420 298° West 271 312 8,800 2,800 Climbing FlightAware ADS-B
Sat 12:19:50 AM 40.9109 -73.9507 297° West 273 314 9,200 3,429 Climbing FlightAware ADS-B
Sat 12:19:57 AM 40.9154 -73.9625 297° West 275 316 9,600 3,000 Climbing FlightAware ADS-B
Sat 12:19:58 AM 40.9160 -73.9641 296° West 275 316 9,600 1,200 Level FlightAware ADS-B
Sat 12:20:02 AM 40.9184 -73.9691 302° West 277 319 9,700 2,400 Climbing FlightAware ADS-B
Sat 12:20:03 AM 40.9197 -73.9717 303° West 278 320 9,800 4,000 Climbing FlightAware ADS-B
Sat 12:20:05 AM 40.9209 -73.9739 306° West 279 321 9,900 2,000 Climbing FlightAware ADS-B
Sat 12:20:09 AM 40.9241 -73.9792 309° West 282 325 10,000 1,500 Climbing FlightAware ADS-B
Sat 12:20:13 AM 40.9266 -73.9831 310° West 284 327 10,100 1,200 Climbing FlightAware ADS-B
Sat 12:20:39 AM 40.9531 -74.0167 316° Northwest 315 362 10,600 1,161 Climbing FlightAware ADS-B
Sat 12:20:44 AM 40.9587 -74.0236 317° Northwest 320 368 10,700 2,118 Climbing FlightAware ADS-B
Sat 12:21:13 AM 40.9911 -74.0641 317° Northwest 337 388 11,800 2,200 Climbing FlightAware ADS-B
Sat 12:21:14 AM 40.9932 -74.0669 315° West 337 388 11,800 2,600 Level FlightAware ADS-B
Sat 12:21:43 AM 41.0256 -74.1082 316° Northwest 343 395 13,100 2,516 Climbing FlightAware ADS-B
Sat 12:21:45 AM 41.0278 -74.1112 314° West 344 396 13,100 2,250 Level FlightAware ADS-B
Sat 12:21:51 AM 41.0336 -74.1199 311° West 346 398 13,400 2,182 Climbing FlightAware ADS-B
Sat 12:21:56 AM 41.0384 -74.1292 304° West 348 400 13,500 2,000 Climbing FlightAware ADS-B
Sat 12:21:57 AM 41.0392 -74.1311 299° West 349 402 13,600 3,000 Climbing FlightAware ADS-B
Sat 12:22:00 AM 41.0412 -74.1362 297° West 350 403 13,700 2,000 Climbing FlightAware ADS-B
Sat 12:22:03 AM 41.0435 -74.1438 292° West 352 405 13,800 2,400 Climbing FlightAware ADS-B
Sat 12:22:05 AM 41.0444 -74.1469 291° West 352 405 13,900 4,000 Climbing FlightAware ADS-B
Sat 12:22:06 AM 41.0452 -74.1509 285° West 352 405 14,000 2,400 Climbing FlightAware ADS-B
Sat 12:22:20 AM 41.0501 -74.1774 284° West 355 409 14,500 2,182 Climbing FlightAware ADS-B
Sat 12:22:39 AM 41.0568 -74.2177 282° West 357 411 15,200 1,765 Climbing FlightAware ADS-B
Sat 12:22:54 AM 41.0625 -74.2523 282° West 357 411 15,500 581 Climbing FlightAware ADS-B
Sat 12:23:10 AM 41.0679 -74.2855 282° West 358 412 15,500 128 Level FlightAware ADS-B
Sat 12:23:41 AM 41.0791 -74.3527 282° West 359 413 15,600  Climbing FlightAware ADS-B
Sat 12:24:03 AM 41.0869 -74.3993 283° West 361 415 15,500 -200 Descending FlightAware ADS-B
Sat 12:24:11 AM 41.0897 -74.4156 283° West 361 415 15,500  Level FlightAware ADS-B
Sat 12:24:39 AM 41.0999 -74.4762 283° West 361 415 15,500  Level FlightAware ADS-B
Sat 12:24:44 AM 41.1018 -74.4872 283° West 361 415 15,500 162 Level FlightAware ADS-B
Sat 12:25:16 AM 41.1133 -74.5562 282° West 360 414 15,600 194 Climbing FlightAware ADS-B
Sat 12:25:46 AM 41.1238 -74.6196 282° West 359 413 15,700 1,053 Climbing FlightAware ADS-B
Sat 12:26:13 AM 41.1336 -74.6777 283° West 366 421 16,600 1,941 Climbing FlightAware ADS-B
Sat 12:26:20 AM 41.1371 -74.6932 287° West 367 422 16,800 1,714 Climbing FlightAware ADS-B
Sat 12:26:27 AM 41.1421 -74.7089 293° West 370 426 17,000 2,000 Climbing FlightAware ADS-B
Sat 12:26:59 AM 41.1687 -74.7698 300° West 376 433 18,100 2,516 Climbing FlightAware ADS-B
Sat 12:27:29 AM 41.1956 -74.8304 301° West 369 425 19,600 2,500 Climbing FlightAware ADS-B
Sat 12:27:59 AM 41.2218 -74.8902 300° West 374 430 20,600 1,800 Climbing FlightAware ADS-B
Sat 12:28:29 AM 41.2484 -74.9517 300° West 379 436 21,400 1,770 Climbing FlightAware ADS-B
Sat 12:29:00 AM 41.2739 -75.0110 300° West 380 437 22,400 1,574 Climbing FlightAware ADS-B
Sat 12:29:30 AM 41.3011 -75.0738 300° West 389 448 23,000 1,400 Climbing FlightAware ADS-B
Sat 12:30:00 AM 41.3286 -75.1376 300° West 395 455 23,800 1,475 Climbing FlightAware ADS-B
Sat 12:30:31 AM 41.3569 -75.2031 300° West 402 463 24,500 1,475 Climbing FlightAware ADS-B
Sat 12:31:01 AM 41.3843 -75.2672 300° West 404 465 25,300 1,377 Climbing FlightAware ADS-B
Sat 12:31:32 AM 41.4127 -75.3336 300° West 408 470 25,900 1,279 Climbing FlightAware ADS-B
Sat 12:32:02 AM 41.4413 -75.4005 300° West 413 475 26,600 1,286 Climbing FlightAware ADS-B
Sat 12:32:28 AM 41.4665 -75.4599 300° West 417 480 27,100 1,200 Climbing FlightAware ADS-B
Sat 12:32:52 AM 41.4856 -75.5145 295° West 419 482 27,600 1,286 Climbing FlightAware ADS-B
Sat 12:33:24 AM 41.5075 -75.5912 291° West 422 486 28,300 1,258 Climbing FlightAware ADS-B
Sat 12:33:54 AM 41.5287 -75.6648 291° West 424 488 28,900 1,967 Climbing FlightAware ADS-B
Sat 12:34:25 AM 41.5497 -75.7381 291° West 405 466 30,300 2,516 Climbing FlightAware ADS-B
Sat 12:34:56 AM 41.5699 -75.8091 291° West 392 451 31,500 2,361 Climbing FlightAware ADS-B
Sat 12:35:26 AM 41.5885 -75.8744 291° West 377 434 32,700 1,770 Climbing FlightAware ADS-B
Sat 12:35:57 AM 41.6074 -75.9417 291° West 375 432 33,300 1,161 Climbing FlightAware ADS-B
Sat 12:36:28 AM 41.6267 -76.0097 291° West 375 432 33,900 984 Climbing FlightAware ADS-B
Sat 12:36:58 AM 41.6449 -76.0733 291° West 376 433 34,300 885 Climbing FlightAware ADS-B
Sat 12:37:29 AM 41.6640 -76.1415 291° West 377 434 34,800 885 Climbing FlightAware ADS-B
Sat 12:37:59 AM 41.6830 -76.2088 291° West 381 438 35,200 1,100 Climbing FlightAware ADS-B
Sat 12:38:29 AM 41.7013 -76.2744 291° West 369 425 35,900 787 Climbing FlightAware ADS-B
Sat 12:39:00 AM 41.7186 -76.3363 291° West 364 419 36,000 98 Climbing FlightAware ADS-B
Sat 12:39:30 AM 41.7370 -76.4020 291° West 368 423 36,000  Level FlightAware ADS-B
Sat 12:40:01 AM 41.7552 -76.4680 290° West 371 427 36,000  Level FlightAware ADS-B
Sat 12:40:32 AM 41.7738 -76.5354 290° West 371 427 36,000  Level FlightAware ADS-B
Sat 12:41:03 AM 41.7919 -76.6006 290° West 372 428 36,000  Level FlightAware ADS-B
Sat 12:41:33 AM 41.8100 -76.6686 290° West 376 433 36,000  Level Cleveland Center
Sat 12:42:33 AM 41.8456 -76.7975 290° West 376 433 36,000  Level Cleveland Center
Sat 12:43:33 AM 41.8789 -76.9239 290° West 376 433 36,000  Level Cleveland Center
Sat 12:44:33 AM 41.9142 -77.0531 290° West 371 427 36,000  Level Cleveland Center
Sat 12:45:33 AM 41.9492 -77.1825 290° West 371 427 36,000  Level Cleveland Center
Sat 12:46:33 AM 41.9844 -77.3119 290° West 371 427 36,000  Level Cleveland Center
Sat 12:47:33 AM 42.0211 -77.4386 291° West 365 420 36,000  Level Cleveland Center
Sat 12:48:33 AM 42.0539 -77.5656 289° West 360 414 36,000  Level Cleveland Center
Sat 12:49:33 AM 42.0883 -77.6956 290° West 360 414 36,000  Level Cleveland Center
Sat 12:50:33 AM 42.1228 -77.8256 290° West 360 414 36,000  Level Cleveland Center
Sat 12:51:33 AM 42.1550 -77.9531 289° West 360 414 36,000  Level Cleveland Center
Sat 12:52:33 AM 42.1892 -78.0833 290° West 360 414 36,000  Level Cleveland Center
Sat 12:53:33 AM 42.2233 -78.2139 290° West 360 414 36,000  Level Cleveland Center
Sat 12:54:33 AM 42.2528 -78.3278 289° West 360 414 36,000  Level Cleveland Center
Sat 12:55:33 AM 42.2864 -78.4614 289° West 360 414 36,000  Level Cleveland Center
Sat 12:56:33 AM 42.3200 -78.5922 289° West 365 420 36,000  Level Cleveland Center
Sat 12:57:33 AM 42.3536 -78.7231 289° West 365 420 36,000  Level Cleveland Center
Sat 12:58:33 AM 42.3889 -78.8542 290° West 365 420 36,000  Level Cleveland Center
Sat 12:59:33 AM 42.4222 -78.9969 288° West 359 413 36,000  Level Cleveland Center
Sat 01:00:33 AM 42.4553 -79.1283 289° West 359 413 36,000  Level Cleveland Center
Sat 01:01:33 AM 42.4836 -79.2458 288° West 365 420 36,000  Level Cleveland Center
Sat 01:02:33 AM 42.4997 -79.3836 279° West 365 420 36,000  Level Cleveland Center
Sat 01:03:33 AM 42.5053 -79.5242 273° West 370 426 36,000  Level Cleveland Center
Sat 01:04:33 AM 42.5108 -79.6622 273° West 370 426 36,000  Level Cleveland Center
Sat 01:05:33 AM 42.5181 -79.8028 274° West 370 426 36,000  Level Cleveland Center
Sat 01:06:33 AM 42.5272 -79.9436 275° West 370 426 36,000  Level Cleveland Center
Sat 01:07:33 AM 42.5281 -80.0844 271° West 375 432 36,000  Level Cleveland Center
Sat 01:08:33 AM 42.5347 -80.2394 273° West 375 432 36,000  Level Cleveland Center
Sat 01:09:33 AM 42.5433 -80.3803 275° West 375 432 36,000  Level Cleveland Center
Sat 01:10:33 AM 42.5478 -80.5183 273° West 375 432 36,000  Level Cleveland Center
Sat 01:11:33 AM 42.5519 -80.6536 272° West 375 432 36,000  Level Cleveland Center
Sat 01:12:33 AM 42.5581 -80.7975 273° West 368 423 36,000  Level Cleveland Center
Sat 01:13:33 AM 42.5617 -80.9328 272° West 373 429 36,000  Level Cleveland Center
Sat 01:14:33 AM 42.5697 -81.0736 274° West 373 429 36,000  Level Cleveland Center
Sat 01:15:33 AM 42.5711 -81.2119 271° West 368 423 36,000  Level Cleveland Center
Sat 01:21:07 AM 42.6760 -81.9780 271° West 379 436 36,000  Level FlightAware ADS-B
Sat 01:21:42 AM 42.6890 -82.0530 283° West 382 440 36,000  Level FlightAware ADS-B
Sat 01:22:52 AM 42.7110 -82.1790 283° West 382 440 36,000  Level FlightAware ADS-B
Sat 01:23:37 AM 42.7290 -82.2830 283° West 383 441 36,000  Level FlightAware ADS-B
Sat 01:24:22 AM 42.7470 -82.3900 283° West 384 442 36,000 -300 Level FlightAware ADS-B
Sat 01:24:57 AM 42.7590 -82.4650 282° West 386 444 35,600 -675 Descending FlightAware ADS-B
Sat 01:25:42 AM 42.7780 -82.5760 283° West 394 453 35,100 -600 Descending FlightAware ADS-B
Sat 01:26:27 AM 42.7940 -82.6730 283° West 398 458 34,700 -635 Descending FlightAware ADS-B
Sat 01:27:07 AM 42.8110 -82.7740 283° West 394 453 34,200 -560 Descending FlightAware ADS-B
Sat 01:27:42 AM 42.8260 -82.8650 283° West 397 457 34,000 -126 Descending FlightAware ADS-B
Sat 01:28:42 AM 42.8510 -83.0160 283° West 400 460 34,000  Level FlightAware ADS-B
Sat 01:29:22 AM 42.8660 -83.1120 282° West 401 461 34,000  Level FlightAware ADS-B
Sat 01:30:02 AM 42.8820 -83.2080 283° West 399 459 34,000  Level FlightAware ADS-B
Sat 01:30:52 AM 42.9000 -83.3240 282° West 397 457 34,000  Level FlightAware ADS-B
Sat 01:31:32 AM 42.9160 -83.4210 283° West 392 451 34,000  Level FlightAware ADS-B
Sat 01:32:12 AM 42.9310 -83.5140 282° West 389 448 34,000  Level FlightAware ADS-B
Sat 01:32:52 AM 42.9450 -83.6060 282° West 388 447 34,000 -67 Level FlightAware ADS-B
Sat 01:33:42 AM 42.9630 -83.7210 282° West 389 448 33,900  Descending FlightAware ADS-B
Sat 01:34:22 AM 42.9530 -83.8910 265° West 404 465 34,000 75 Climbing FlightAware ADS-B
Sat 01:35:02 AM 42.9440 -83.9870 263° West 404 465 34,000  Level FlightAware ADS-B
Sat 01:35:47 AM 42.9330 -84.1030 263° West 403 464 34,000  Level FlightAware ADS-B
Sat 01:36:27 AM 42.9230 -84.2030 262° West 403 464 34,000  Level FlightAware ADS-B
Sat 01:37:12 AM 42.9110 -84.3180 262° West 405 466 34,000  Level FlightAware ADS-B
Sat 01:37:52 AM 42.9010 -84.4210 262° West 405 466 34,000  Level FlightAware ADS-B
Sat 01:38:32 AM 42.8910 -84.5240 262° West 404 465 34,000  Level FlightAware ADS-B
Sat 01:39:17 AM 42.8790 -84.6360 262° West 405 466 34,000  Level FlightAware ADS-B
Sat 01:40:02 AM 42.8670 -84.7510 262° West 406 467 34,000  Level FlightAware ADS-B
Sat 01:40:42 AM 42.8570 -84.8530 262° West 405 466 34,000  Level FlightAware ADS-B
Sat 01:41:27 AM 42.8450 -84.9620 261° West 407 468 34,000  Level FlightAware ADS-B
Sat 01:42:02 AM 42.8350 -85.0540 262° West 407 468 34,000  Level FlightAware ADS-B
Sat 01:42:52 AM 42.8220 -85.1770 262° West 408 470 34,000  Level FlightAware ADS-B
Sat 01:43:32 AM 42.8100 -85.2820 261° West 409 471 34,000  Level FlightAware ADS-B
Sat 01:44:12 AM 42.8000 -85.3810 262° West 409 471 34,000  Level FlightAware ADS-B
Sat 01:44:57 AM 42.7870 -85.4970 261° West 409 471 34,000  Level FlightAware ADS-B
Sat 01:45:37 AM 42.7690 -85.5960 256° West 409 471 34,000 -750 Level FlightAware ADS-B
Sat 01:46:17 AM 42.7510 -85.6950 256° West 409 471 33,000 -1,765 Descending FlightAware ADS-B
Sat 01:47:02 AM 42.7310 -85.8110 257° West 414 476 31,500 -1,976 Descending FlightAware ADS-B
Sat 01:47:42 AM 42.7130 -85.9090 256° West 418 481 30,200 -1,976 Descending FlightAware ADS-B
Sat 01:48:27 AM 42.6910 -86.0250 256° West 415 478 28,700 -1,976 Descending FlightAware ADS-B
Sat 01:49:07 AM 42.6730 -86.1250 256° West 404 465 27,400 -1,906 Descending FlightAware ADS-B
Sat 01:49:52 AM 42.6530 -86.2300 256° West 392 451 26,000 -1,976 Descending FlightAware ADS-B
Sat 01:50:32 AM 42.6350 -86.3310 256° West 385 443 24,600 -2,025 Descending FlightAware ADS-B
Sat 01:51:12 AM 42.6170 -86.4230 255° West 381 438 23,300 -1,976 Descending FlightAware ADS-B
Sat 01:51:57 AM 42.5980 -86.5260 256° West 379 436 21,800 -1,906 Descending FlightAware ADS-B
Sat 01:52:37 AM 42.5810 -86.6170 256° West 375 432 20,600 -1,906 Descending FlightAware ADS-B
Sat 01:53:22 AM 42.5610 -86.7210 255° West 368 423 19,100 -2,047 Descending FlightAware ADS-B
Sat 01:54:02 AM 42.5380 -86.8080 250° West 364 419 17,700 -2,100 Descending FlightAware ADS-B
Sat 01:54:42 AM 42.5160 -86.8900 250° West 359 413 16,300 -2,118 Descending FlightAware ADS-B
Sat 01:55:27 AM 42.4900 -86.9850 250° West 353 406 14,700 -2,188 Descending FlightAware ADS-B
Sat 01:56:07 AM 42.4670 -87.0690 250° West 349 402 13,200 -2,175 Descending FlightAware ADS-B
Sat 01:56:47 AM 42.4460 -87.1470 250° West 344 396 11,800 -1,976 Descending FlightAware ADS-B
Sat 01:57:32 AM 42.4210 -87.2370 249° West 336 387 10,400 -1,680 Descending FlightAware ADS-B
Sat 01:58:02 AM 42.4040 -87.2960 249° West 322 371 9,700 -1,200 Descending FlightAware ADS-B
Sat 01:58:12 AM 42.3950 -87.3110 231° Southwest 313 360 9,600  Descending FlightAware ADS-B
Sat 01:58:27 AM 42.3800 -87.3280 220° Southwest 298 343 9,700 -667 Climbing FlightAware ADS-B
Sat 01:58:57 AM 42.3460 -87.3600 215° Southwest 286 329 9,100 -1,200 Descending FlightAware ADS-B
Sat 01:59:22 AM 42.3200 -87.3850 215° Southwest 281 323 8,600 -1,200 Descending FlightAware ADS-B
Sat 01:59:37 AM 42.3030 -87.4020 216° Southwest 275 316 8,300 -1,200 Descending FlightAware ADS-B
Sat 02:00:07 AM 42.2720 -87.4320 216° Southwest 268 308 7,700 -1,091 Descending FlightAware ADS-B
Sat 02:00:32 AM 42.2480 -87.4560 217° Southwest 261 300 7,300 -1,050 Descending FlightAware ADS-B
Sat 02:00:47 AM 42.2360 -87.4680 217° Southwest 258 297 7,000 -1,650 Descending FlightAware ADS-B
Sat 02:01:12 AM 42.2100 -87.4940 217° Southwest 261 300 6,200 -1,418 Descending FlightAware ADS-B
Sat 02:01:42 AM 42.1800 -87.5230 216° Southwest 251 289 5,700 -1,100 Descending FlightAware ADS-B
Sat 02:02:12 AM 42.1520 -87.5510 217° Southwest 248 285 5,100 -1,300 Descending FlightAware ADS-B
Sat 02:02:42 AM 42.1270 -87.5760 217° Southwest 245 282 4,400 -1,418 Descending FlightAware ADS-B
Sat 02:03:07 AM 42.1000 -87.5920 204° Southwest 241 277 3,800 -764 Descending FlightAware ADS-B
Sat 02:03:37 AM 42.0690 -87.6030 195° South 222 255 3,700 -109 Descending FlightAware ADS-B
Sat 02:04:02 AM 42.0450 -87.6120 196° South 200 230 3,700  Level FlightAware ADS-B
Sat 02:04:17 AM 42.0330 -87.6170 197° South 197 227 3,700  Level FlightAware ADS-B
Sat 02:04:47 AM 42.0060 -87.6260 194° South 181 208 3,700  Level FlightAware ADS-B
Sat 02:05:12 AM 41.9890 -87.6370 206° Southwest 175 201 3,700  Level FlightAware ADS-B
Sat 02:05:27 AM 41.9840 -87.6520 246° West 171 197 3,700 -533 Level FlightAware ADS-B
Sat 02:05:57 AM 41.9770 -87.6830 253° West 173 199 3,300 -982 Descending FlightAware ADS-B
Sat 02:06:22 AM 41.9710 -87.7100 253° West 178 205 2,800 -1,091 Descending FlightAware ADS-B
Sat 02:06:52 AM 41.9690 -87.7430 265° West 173 199 2,300 -900 Descending FlightAware ADS-B
Sat 02:07:22 AM 41.9690 -87.7730 270° West 168 193 1,900 -840 Descending FlightAware ADS-B
Sat 02:07:42 AM 41.9690 -87.7930 270° West 162 186 1,600 -764 Descending FlightAware ADS-B
Sat 02:08:17 AM 41.9690 -87.8250 270° West 137 158 1,200 -700 Descending FlightAware ADS-B
Sat 02:08:42 AM 41.9690 -87.8440 270° West 132 152 900 -720 Descending FlightAware ADS-B
Sat 02:09:07 AM 41.9690 -87.8670 270° West 134 154 600 -600 Descending FlightAware ADS-B
Sat 02:09:42 AM 41.9690 -87.8960 270° West 138 159 300 -514 Descending FlightAware ADS-B

Login

Don't have an account? Register now (free) for customized features, flight alerts, and more!